Time;durP1;ratioP1;P1;durP2;ratioP2;P2;SDS_P1;SDS_P2;PMS_P1;PMS_P2;Temp;Humidity;BMP_temperature;BMP_pressure;BME280_temperature;BME280_humidity;BME280_pressure;Samples;Min_cycle;Max_cycle;Signal;HPM_P1;HPM_P2
2023/05/16 00:02:15;;;;;;;19.80;13.75;;;10.10;99.90;;;;;;5077411;28;20024;-61
2023/05/16 00:04:41;;;;;;;15.77;12.40;;;10.10;99.90;;;;;;5079261;28;20543;-60
2023/05/16 00:07:06;;;;;;;18.73;13.45;;;10.00;99.90;;;;;;5077296;28;20487;-60
2023/05/16 00:09:32;;;;;;;15.27;12.40;;;10.00;99.90;;;;;;5075323;28;20032;-61
2023/05/16 00:11:58;;;;;;;14.63;13.25;;;10.00;99.90;;;;;;5079413;28;20887;-60
2023/05/16 00:14:25;;;;;;;18.90;12.85;;;9.90;99.90;;;;;;5077692;28;20032;-60
2023/05/16 00:16:56;;;;;;;13.80;12.48;;;9.90;99.90;;;;;;5073645;28;20028;-61
2023/05/16 00:19:22;;;;;;;12.52;11.63;;;9.80;99.90;;;;;;5075491;28;20025;-59
2023/05/16 00:21:48;;;;;;;24.08;12.77;;;9.70;99.90;;;;;;5075703;28;20017;-60
2023/05/16 00:24:13;;;;;;;13.88;12.63;;;9.60;99.90;;;;;;5075579;28;20047;-60
2023/05/16 00:26:39;;;;;;;15.80;12.23;;;9.50;99.90;;;;;;5076083;28;20040;-61
2023/05/16 00:29:05;;;;;;;13.05;11.82;;;9.50;99.90;;;;;;5076426;28;20029;-59
2023/05/16 00:31:31;;;;;;;13.80;12.70;;;9.50;99.90;;;;;;5076904;28;20488;-60
2023/05/16 00:33:57;;;;;;;13.02;11.93;;;9.40;99.90;;;;;;5074849;28;20094;-60
2023/05/16 00:36:22;;;;;;;13.38;11.98;;;9.40;99.90;;;;;;5077854;28;20068;-63
2023/05/16 00:38:48;;;;;;;13.40;12.15;;;9.30;99.90;;;;;;5073417;28;20024;-61
2023/05/16 00:41:14;;;;;;;13.02;11.73;;;9.30;99.90;;;;;;5076311;28;20749;-60
2023/05/16 00:43:40;;;;;;;13.10;11.98;;;9.20;99.90;;;;;;5078973;28;20023;-60
2023/05/16 00:46:05;;;;;;;12.75;10.85;;;9.20;99.90;;;;;;5076436;28;20025;-60
2023/05/16 00:48:32;;;;;;;12.77;11.50;;;9.10;99.90;;;;;;5075466;28;20031;-61
2023/05/16 00:50:57;;;;;;;11.38;10.27;;;9.10;99.90;;;;;;5072454;28;20032;-61
2023/05/16 00:53:24;;;;;;;13.02;11.73;;;9.00;99.90;;;;;;5077913;28;20027;-61
2023/05/16 00:55:50;;;;;;;13.90;11.00;;;9.00;99.90;;;;;;5075302;28;20035;-61
2023/05/16 00:58:17;;;;;;;14.93;10.23;;;9.00;99.90;;;;;;5076694;28;20418;-60
2023/05/16 01:00:44;;;;;;;20.13;10.35;;;8.90;99.90;;;;;;5078021;28;20024;-59
2023/05/16 01:03:10;;;;;;;14.38;11.10;;;8.80;99.90;;;;;;5075745;28;20035;-61
2023/05/16 01:05:36;;;;;;;16.33;11.00;;;8.80;99.90;;;;;;5081041;28;20396;-61
2023/05/16 01:08:02;;;;;;;13.52;10.18;;;8.70;99.90;;;;;;5083163;28;20029;-61
2023/05/16 01:10:38;;;;;;;11.80;10.57;;;8.70;99.90;;;;;;5081167;28;20036;-60
2023/05/16 01:13:19;;;;;;;12.50;11.30;;;8.70;99.90;;;;;;5083796;28;20036;-60
2023/05/16 01:16:15;;;;;;;12.50;11.48;;;8.70;99.90;;;;;;5079231;28;20035;-61
2023/05/16 01:19:19;;;;;;;12.07;10.98;;;8.70;99.90;;;;;;5057999;28;20044;-60
2023/05/16 01:21:56;;;;;;;12.05;10.98;;;8.60;99.90;;;;;;5078448;28;20046;-60
2023/05/16 01:24:32;;;;;;;11.30;10.32;;;8.60;99.90;;;;;;5060354;28;20035;-60
2023/05/16 01:26:59;;;;;;;12.18;10.93;;;8.50;99.90;;;;;;5082615;28;20119;-60
2023/05/16 01:29:25;;;;;;;11.65;10.48;;;8.40;99.90;;;;;;5074590;28;20020;-61
2023/05/16 01:31:51;;;;;;;12.13;11.13;;;8.40;99.90;;;;;;5063893;28;20031;-60
2023/05/16 01:34:17;;;;;;;12.50;11.38;;;8.40;99.90;;;;;;5080331;28;20078;-61
2023/05/16 01:37:07;;;;;;;13.68;12.48;;;8.40;99.90;;;;;;5079740;28;20027;-60
2023/05/16 01:39:41;;;;;;;14.00;12.80;;;8.40;99.90;;;;;;5079442;28;20032;-62
2023/05/16 01:42:13;;;;;;;20.02;13.10;;;8.40;99.90;;;;;;5079888;28;20020;-60
2023/05/16 01:45:05;;;;;;;14.20;13.00;;;8.40;99.90;;;;;;5081026;28;20508;-60
2023/05/16 01:47:32;;;;;;;15.07;12.88;;;8.50;99.90;;;;;;5077901;28;20520;-60
2023/05/16 01:50:19;;;;;;;13.35;12.40;;;8.50;99.90;;;;;;5077588;28;20167;-59
2023/05/16 01:52:59;;;;;;;24.25;14.45;;;8.50;99.90;;;;;;5068938;28;20025;-60
2023/05/16 01:55:54;;;;;;;15.32;13.98;;;8.50;99.90;;;;;;5079889;28;20048;-60
2023/05/16 01:58:24;;;;;;;13.82;12.48;;;8.40;99.90;;;;;;5078327;28;20032;-59
2023/05/16 02:00:59;;;;;;;14.80;12.48;;;8.40;99.90;;;;;;5081786;28;20027;-60
2023/05/16 02:03:25;;;;;;;14.15;12.82;;;8.40;99.90;;;;;;5080063;28;20016;-60
2023/05/16 02:05:51;;;;;;;14.23;13.07;;;8.30;99.90;;;;;;5078769;28;20030;-60
2023/05/16 02:08:16;;;;;;;18.50;13.45;;;8.30;99.90;;;;;;5081624;28;20024;-59
2023/05/16 02:10:42;;;;;;;14.35;12.98;;;8.30;99.90;;;;;;5079874;28;20400;-60
2023/05/16 02:13:08;;;;;;;14.77;13.35;;;8.30;99.90;;;;;;5078823;28;20032;-59
2023/05/16 02:15:33;;;;;;;15.48;12.90;;;8.30;99.90;;;;;;5075569;28;20028;-60
2023/05/16 02:17:59;;;;;;;13.45;12.55;;;8.30;99.90;;;;;;5077214;28;20515;-61
2023/05/16 02:20:25;;;;;;;13.10;12.00;;;8.20;99.90;;;;;;5079889;28;20047;-59
2023/05/16 02:22:50;;;;;;;11.88;10.98;;;8.10;99.90;;;;;;5075979;28;20055;-60
2023/05/16 02:25:16;;;;;;;11.98;11.05;;;8.00;99.90;;;;;;5078939;28;20457;-60
2023/05/16 02:27:42;;;;;;;12.07;11.18;;;8.00;99.90;;;;;;5078617;28;20465;-59
2023/05/16 02:30:10;;;;;;;13.77;12.52;;;8.00;99.90;;;;;;5076447;28;20448;-60
2023/05/16 02:32:37;;;;;;;14.35;12.93;;;8.00;99.90;;;;;;5082164;28;20020;-60
2023/05/16 02:35:03;;;;;;;15.32;12.85;;;8.00;99.90;;;;;;5062643;28;20047;-60
2023/05/16 02:37:29;;;;;;;13.63;12.20;;;8.00;99.90;;;;;;5078325;28;20017;-59
2023/05/16 02:39:55;;;;;;;13.90;12.63;;;8.00;99.90;;;;;;5077797;28;20024;-59
2023/05/16 02:42:20;;;;;;;15.93;12.93;;;8.00;99.90;;;;;;5079501;28;20527;-60
2023/05/16 02:44:46;;;;;;;20.15;14.77;;;8.00;99.90;;;;;;5081385;28;20028;-60
2023/05/16 02:47:11;;;;;;;17.88;13.70;;;7.90;99.90;;;;;;5079474;28;20111;-60
2023/05/16 02:49:37;;;;;;;30.55;12.98;;;7.90;99.90;;;;;;5080189;28;20063;-60
2023/05/16 02:52:03;;;;;;;14.73;13.45;;;7.90;99.90;;;;;;5079830;28;21067;-59
2023/05/16 02:54:29;;;;;;;17.45;13.23;;;7.90;99.90;;;;;;5077181;28;20495;-60
2023/05/16 02:56:54;;;;;;;20.13;13.88;;;7.90;99.90;;;;;;5078281;28;20040;-59
2023/05/16 02:59:20;;;;;;;14.63;12.30;;;7.90;99.90;;;;;;5077428;28;20679;-60
2023/05/16 03:01:45;;;;;;;14.10;12.65;;;7.90;99.90;;;;;;5078533;28;20532;-60
2023/05/16 03:04:11;;;;;;;14.80;13.35;;;7.80;99.90;;;;;;5079457;28;20095;-59
2023/05/16 03:06:37;;;;;;;13.35;12.15;;;7.80;99.90;;;;;;5075852;28;20040;-59
2023/05/16 03:09:02;;;;;;;14.48;13.38;;;7.80;99.90;;;;;;5081209;28;20021;-60
2023/05/16 03:11:28;;;;;;;15.50;13.88;;;7.90;99.90;;;;;;5075358;28;20032;-60
2023/05/16 03:13:54;;;;;;;17.33;13.20;;;7.90;99.90;;;;;;5076746;28;20034;-59
2023/05/16 03:16:20;;;;;;;14.20;13.00;;;7.90;99.90;;;;;;5075564;28;20381;-60
2023/05/16 03:18:46;;;;;;;14.73;13.32;;;7.90;99.90;;;;;;5076893;28;20063;-59
2023/05/16 03:21:12;;;;;;;13.27;12.27;;;7.90;99.90;;;;;;5078009;28;20044;-60
2023/05/16 03:23:37;;;;;;;14.70;13.25;;;8.00;99.90;;;;;;5081136;28;20032;-60
2023/05/16 03:26:03;;;;;;;16.90;14.90;;;7.90;99.90;;;;;;5064997;28;20032;-60
2023/05/16 03:28:29;;;;;;;15.98;13.20;;;7.90;99.90;;;;;;5077280;28;20036;-60
2023/05/16 03:30:54;;;;;;;14.35;13.25;;;8.00;99.90;;;;;;5075760;28;20025;-59
2023/05/16 03:33:20;;;;;;;14.50;13.05;;;8.00;99.90;;;;;;5074629;28;20377;-60
2023/05/16 03:35:46;;;;;;;13.68;12.57;;;8.00;99.90;;;;;;5078502;28;20106;-60
2023/05/16 03:38:12;;;;;;;21.80;13.73;;;8.00;99.90;;;;;;5076733;28;20369;-61
2023/05/16 03:40:38;;;;;;;10.93;10.05;;;8.00;99.90;;;;;;5074753;28;20024;-60
2023/05/16 03:43:04;;;;;;;11.77;10.68;;;8.00;99.90;;;;;;5078690;28;20031;-60
2023/05/16 03:45:30;;;;;;;11.10;10.30;;;8.00;99.90;;;;;;5078240;28;20036;-61
2023/05/16 03:47:56;;;;;;;14.90;13.50;;;8.00;99.90;;;;;;5075280;28;20028;-60
2023/05/16 03:50:22;;;;;;;16.20;12.82;;;8.10;99.90;;;;;;5076667;28;20021;-61
2023/05/16 03:52:47;;;;;;;18.52;13.55;;;8.10;99.90;;;;;;5077778;28;20396;-60
2023/05/16 03:55:14;;;;;;;13.75;12.43;;;8.20;99.90;;;;;;5076373;28;20092;-60
2023/05/16 03:57:41;;;;;;;13.75;12.57;;;8.30;99.90;;;;;;5077705;28;20401;-61
2023/05/16 04:00:07;;;;;;;13.90;12.00;;;8.30;99.90;;;;;;5074896;28;20024;-60
2023/05/16 04:02:33;;;;;;;17.15;12.93;;;8.40;99.90;;;;;;5075408;28;20433;-62
2023/05/16 04:04:59;;;;;;;14.05;12.75;;;8.50;99.90;;;;;;5078572;28;20031;-60
2023/05/16 04:07:24;;;;;;;12.18;11.20;;;8.50;99.90;;;;;;5075116;28;20016;-60
2023/05/16 04:09:51;;;;;;;11.00;10.15;;;8.50;99.90;;;;;;5076215;28;20033;-61
2023/05/16 04:12:16;;;;;;;10.55;9.45;;;8.60;99.90;;;;;;5076006;28;20043;-61
2023/05/16 04:14:42;;;;;;;7.72;7.10;;;8.60;99.90;;;;;;5079319;28;20416;-59
2023/05/16 04:17:08;;;;;;;7.72;7.03;;;8.60;99.90;;;;;;5075289;28;20051;-61
2023/05/16 04:19:33;;;;;;;6.32;5.82;;;8.50;99.90;;;;;;5075865;28;20040;-59
2023/05/16 04:21:59;;;;;;;6.78;6.25;;;8.40;99.90;;;;;;5077108;28;20476;-60
2023/05/16 04:24:25;;;;;;;6.05;5.65;;;8.30;99.90;;;;;;5075995;28;20055;-59
2023/05/16 04:26:51;;;;;;;7.50;7.00;;;8.30;99.90;;;;;;5077972;28;20028;-60
2023/05/16 04:29:17;;;;;;;7.13;6.63;;;8.20;99.90;;;;;;5075825;28;20028;-59
2023/05/16 04:31:42;;;;;;;8.77;8.07;;;8.30;99.90;;;;;;5076807;28;20480;-60
2023/05/16 04:34:08;;;;;;;9.13;8.43;;;8.30;99.90;;;;;;5076555;28;20104;-58
2023/05/16 04:36:34;;;;;;;10.15;9.07;;;8.30;99.90;;;;;;5073310;28;20036;-60
2023/05/16 04:39:00;;;;;;;9.77;8.93;;;8.30;99.90;;;;;;5076896;28;20032;-60
2023/05/16 04:41:25;;;;;;;10.77;9.88;;;8.30;99.90;;;;;;5077866;28;20028;-60
2023/05/16 04:43:52;;;;;;;12.63;11.65;;;8.40;99.90;;;;;;5074392;28;20019;-60
2023/05/16 04:46:19;;;;;;;11.95;10.98;;;8.30;99.90;;;;;;5062209;28;20020;-59
2023/05/16 04:48:45;;;;;;;14.80;13.10;;;8.40;99.90;;;;;;5078619;28;20033;-60
2023/05/16 04:51:11;;;;;;;14.25;12.77;;;8.50;99.90;;;;;;5076685;28;20504;-61
2023/05/16 04:53:36;;;;;;;15.57;14.18;;;8.50;99.90;;;;;;5073560;28;20039;-60
2023/05/16 04:56:04;;;;;;;16.38;14.77;;;8.60;99.90;;;;;;5076075;28;20027;-60
2023/05/16 04:58:29;;;;;;;14.98;13.63;;;8.70;99.90;;;;;;5078714;28;20021;-60
2023/05/16 05:00:55;;;;;;;15.48;14.02;;;8.80;99.90;;;;;;5074877;28;20036;-60
2023/05/16 05:03:21;;;;;;;15.27;13.88;;;8.80;99.90;;;;;;5073032;28;20021;-61
2023/05/16 05:05:47;;;;;;;15.48;14.07;;;8.90;99.90;;;;;;5075178;28;20424;-58
2023/05/16 05:08:13;;;;;;;16.50;15.20;;;9.00;99.90;;;;;;5058462;28;20027;-60
2023/05/16 05:10:39;;;;;;;22.00;14.73;;;9.10;99.90;;;;;;5076092;28;20024;-59
2023/05/16 05:13:05;;;;;;;14.73;13.52;;;9.20;99.90;;;;;;5079639;28;20031;-60
2023/05/16 05:15:31;;;;;;;14.52;13.32;;;9.30;99.90;;;;;;5078471;28;20032;-60
2023/05/16 05:17:56;;;;;;;14.23;12.57;;;9.30;99.90;;;;;;5075986;28;20024;-61
2023/05/16 05:20:22;;;;;;;13.75;12.60;;;9.40;99.90;;;;;;5074310;28;20089;-60
2023/05/16 05:22:48;;;;;;;13.38;12.27;;;9.50;99.90;;;;;;5079443;28;20073;-59
2023/05/16 05:25:14;;;;;;;13.38;12.20;;;9.60;99.90;;;;;;5077158;28;20020;-60
2023/05/16 05:27:39;;;;;;;12.48;11.38;;;9.60;99.90;;;;;;5076879;28;20756;-59
2023/05/16 05:30:05;;;;;;;14.45;12.38;;;9.70;99.90;;;;;;5076226;28;20028;-60
2023/05/16 05:32:31;;;;;;;14.02;12.93;;;9.70;99.90;;;;;;5068406;28;20494;-59
2023/05/16 05:34:57;;;;;;;13.63;12.52;;;9.70;99.90;;;;;;5075650;28;20078;-61
2023/05/16 05:37:23;;;;;;;14.20;12.98;;;9.80;99.90;;;;;;5073507;28;20542;-61
2023/05/16 05:39:48;;;;;;;13.77;12.27;;;9.90;99.90;;;;;;5081324;28;20028;-60
2023/05/16 05:42:14;;;;;;;12.80;11.75;;;10.00;99.90;;;;;;5078842;28;20023;-60
2023/05/16 05:44:40;;;;;;;13.32;12.02;;;10.20;99.90;;;;;;5080067;28;20028;-60
2023/05/16 05:47:06;;;;;;;13.05;11.82;;;10.30;99.90;;;;;;5078642;28;20120;-61
2023/05/16 05:49:32;;;;;;;13.88;12.48;;;10.30;99.90;;;;;;5079435;28;20024;-60
2023/05/16 05:51:58;;;;;;;14.48;13.27;;;10.30;99.90;;;;;;5082267;28;20507;-61
2023/05/16 05:54:24;;;;;;;13.05;12.05;;;10.30;99.90;;;;;;5081423;28;20032;-60
2023/05/16 05:56:50;;;;;;;12.63;11.73;;;10.30;99.90;;;;;;5083048;28;20025;-60
2023/05/16 05:59:15;;;;;;;12.93;11.80;;;10.40;99.90;;;;;;5079982;28;20032;-60
2023/05/16 06:01:43;;;;;;;12.93;11.82;;;10.50;99.90;;;;;;5081258;28;20459;-60
2023/05/16 06:04:09;;;;;;;13.68;12.23;;;10.60;99.90;;;;;;5084493;28;20023;-60
2023/05/16 06:06:35;;;;;;;16.23;11.27;;;10.70;99.90;;;;;;5084538;28;20377;-61
2023/05/16 06:09:00;;;;;;;12.80;11.52;;;10.80;99.90;;;;;;5083472;28;20024;-60
2023/05/16 06:11:26;;;;;;;14.00;11.65;;;10.90;99.90;;;;;;5081191;28;20038;-61
2023/05/16 06:13:52;;;;;;;12.25;11.30;;;11.00;99.90;;;;;;5082058;28;20017;-60
2023/05/16 06:16:17;;;;;;;12.32;11.43;;;11.10;99.90;;;;;;5080558;28;20491;-60
2023/05/16 06:18:43;;;;;;;14.50;10.75;;;11.20;99.90;;;;;;5086187;28;20484;-60
2023/05/16 06:21:10;;;;;;;12.10;11.20;;;11.30;99.90;;;;;;5083076;28;20115;-60
2023/05/16 06:23:35;;;;;;;13.93;10.77;;;11.40;99.90;;;;;;5079612;28;20032;-61
2023/05/16 06:26:02;;;;;;;13.25;12.00;;;11.50;99.90;;;;;;5078707;28;20085;-60
2023/05/16 06:28:28;;;;;;;12.77;11.40;;;11.60;99.90;;;;;;5080256;28;20032;-60
2023/05/16 06:30:54;;;;;;;12.60;10.88;;;11.80;99.90;;;;;;5076681;28;20432;-62
2023/05/16 06:33:20;;;;;;;11.77;10.68;;;11.90;99.90;;;;;;5077891;28;20484;-60
2023/05/16 06:35:47;;;;;;;12.20;10.88;;;12.00;99.90;;;;;;5079501;28;20032;-60
2023/05/16 06:38:13;;;;;;;11.57;10.70;;;12.30;99.90;;;;;;5077721;28;20187;-60
2023/05/16 06:40:39;;;;;;;13.93;11.85;;;12.40;99.90;;;;;;5059140;28;20040;-60
2023/05/16 06:43:05;;;;;;;11.52;10.63;;;12.50;99.90;;;;;;5078724;28;20013;-60
2023/05/16 06:45:30;;;;;;;12.07;11.13;;;12.70;99.90;;;;;;5075737;28;20123;-60
2023/05/16 06:47:56;;;;;;;11.75;10.43;;;12.80;99.90;;;;;;5078401;28;20058;-60
2023/05/16 06:50:22;;;;;;;12.50;11.02;;;12.90;99.90;;;;;;5080757;28;20082;-60
2023/05/16 06:52:48;;;;;;;11.38;10.20;;;13.00;99.90;;;;;;5078732;28;20040;-60
2023/05/16 06:55:13;;;;;;;12.07;10.48;;;13.20;99.90;;;;;;5080915;28;20016;-61
2023/05/16 06:57:39;;;;;;;10.55;9.75;;;13.30;99.90;;;;;;5080228;28;20090;-61
2023/05/16 07:00:05;;;;;;;12.30;10.77;;;13.30;99.90;;;;;;5078902;28;20036;-60
2023/05/16 07:02:31;;;;;;;12.70;9.82;;;13.40;99.90;;;;;;5071833;28;20465;-61
2023/05/16 07:04:57;;;;;;;11.25;10.32;;;13.50;99.90;;;;;;5079275;28;20039;-61
2023/05/16 07:07:22;;;;;;;10.70;9.80;;;13.50;99.90;;;;;;5080911;28;20051;-62
2023/05/16 07:09:48;;;;;;;11.15;10.18;;;13.50;99.90;;;;;;5078720;28;20035;-61
2023/05/16 07:12:14;;;;;;;11.85;10.70;;;13.60;99.90;;;;;;5081500;28;20032;-60
2023/05/16 07:14:40;;;;;;;10.85;9.98;;;13.70;99.90;;;;;;5078797;28;20056;-60
2023/05/16 07:17:06;;;;;;;10.57;9.18;;;13.80;99.90;;;;;;5078690;28;20092;-61
2023/05/16 07:19:31;;;;;;;11.05;9.95;;;14.00;99.90;;;;;;5079998;28;20028;-61
2023/05/16 07:21:57;;;;;;;9.70;8.82;;;14.10;99.90;;;;;;5083058;28;20070;-60
2023/05/16 07:24:22;;;;;;;10.73;9.80;;;14.30;99.90;;;;;;5080909;28;20016;-62
2023/05/16 07:26:48;;;;;;;10.73;9.68;;;14.30;99.90;;;;;;5079188;28;20121;-61
2023/05/16 07:29:14;;;;;;;9.77;8.98;;;14.30;99.90;;;;;;5078183;28;20039;-60
2023/05/16 07:31:40;;;;;;;12.07;9.70;;;14.40;99.90;;;;;;5078356;28;20629;-60
2023/05/16 07:34:05;;;;;;;12.43;8.95;;;14.50;99.90;;;;;;5077008;28;20071;-60
2023/05/16 07:36:32;;;;;;;10.82;8.75;;;14.50;99.90;;;;;;5075653;28;20033;-61
2023/05/16 07:38:58;;;;;;;10.40;9.50;;;14.60;99.90;;;;;;5076161;28;20035;-60
2023/05/16 07:41:24;;;;;;;9.35;8.57;;;14.70;99.90;;;;;;5077229;28;20116;-60
2023/05/16 07:43:50;;;;;;;10.50;9.57;;;14.80;99.90;;;;;;5080762;28;20044;-61
2023/05/16 07:46:15;;;;;;;10.07;9.27;;;14.80;99.90;;;;;;5076810;28;20024;-61
2023/05/16 07:48:41;;;;;;;10.23;9.50;;;14.90;99.90;;;;;;5077653;28;20030;-60
2023/05/16 07:51:07;;;;;;;10.25;9.45;;;14.90;99.90;;;;;;5077171;28;20123;-61
2023/05/16 07:53:32;;;;;;;9.90;9.02;;;14.90;99.90;;;;;;5078026;28;20046;-61
2023/05/16 07:55:58;;;;;;;10.20;9.40;;;15.00;99.90;;;;;;5060649;28;20040;-61
2023/05/16 07:58:24;;;;;;;8.95;8.25;;;15.00;99.90;;;;;;5081073;28;20057;-61
2023/05/16 08:00:49;;;;;;;10.20;9.20;;;15.10;99.90;;;;;;5075303;28;20497;-60
2023/05/16 08:03:15;;;;;;;9.45;8.73;;;15.10;99.90;;;;;;5058084;28;20065;-61
2023/05/16 08:05:41;;;;;;;8.63;7.90;;;15.40;99.90;;;;;;5074607;28;20671;-61
2023/05/16 08:08:07;;;;;;;8.30;7.72;;;15.70;99.90;;;;;;5077205;28;20024;-61
2023/05/16 08:10:32;;;;;;;8.40;7.80;;;16.00;99.90;;;;;;5078498;28;20028;-60
2023/05/16 08:12:58;;;;;;;7.80;7.10;;;16.20;99.90;;;;;;5075588;28;20396;-60
2023/05/16 08:15:25;;;;;;;6.85;6.35;;;16.30;99.90;;;;;;5076328;28;20040;-61
2023/05/16 08:17:51;;;;;;;7.85;7.15;;;16.20;99.90;;;;;;5074324;28;20500;-60
2023/05/16 08:20:17;;;;;;;6.53;5.97;;;16.00;99.90;;;;;;5077937;28;20040;-60
2023/05/16 08:22:42;;;;;;;7.28;6.68;;;15.90;99.90;;;;;;5074276;28;20029;-60
2023/05/16 08:25:08;;;;;;;6.78;6.18;;;16.00;99.90;;;;;;5075655;28;20032;-60
2023/05/16 08:27:34;;;;;;;7.20;5.95;;;16.20;99.90;;;;;;5077174;28;20047;-61
2023/05/16 08:29:59;;;;;;;6.38;5.72;;;16.30;99.90;;;;;;5075886;28;20108;-59
2023/05/16 08:32:25;;;;;;;6.35;5.82;;;16.40;99.90;;;;;;5077295;28;20040;-60
2023/05/16 08:34:51;;;;;;;5.18;4.78;;;16.40;99.90;;;;;;5077533;28;20039;-60
2023/05/16 08:37:16;;;;;;;5.70;5.15;;;16.30;99.90;;;;;;5076291;28;20016;-60
2023/05/16 08:39:42;;;;;;;5.50;5.10;;;16.10;99.90;;;;;;5074918;28;20047;-59
2023/05/16 08:42:08;;;;;;;6.90;5.00;;;16.00;99.90;;;;;;5075349;28;20111;-61
2023/05/16 08:44:33;;;;;;;5.82;5.32;;;16.10;99.90;;;;;;5073635;28;20035;-61
2023/05/16 08:47:25;;;;;;;6.47;5.28;;;16.20;99.90;;;;;;5073097;28;20021;-61
2023/05/16 08:49:53;;;;;;;5.30;4.63;;;16.20;99.90;;;;;;5076579;28;20485;-59
2023/05/16 08:52:20;;;;;;;5.10;4.60;;;16.20;99.90;;;;;;5076002;28;20028;-61
2023/05/16 08:54:46;;;;;;;5.38;4.93;;;16.20;99.90;;;;;;5074121;28;20607;-60
2023/05/16 08:57:13;;;;;;;21.95;5.47;;;16.10;99.90;;;;;;5072717;28;20032;-61
2023/05/16 08:59:40;;;;;;;4.70;4.28;;;16.00;99.90;;;;;;5072109;28;20028;-60
2023/05/16 09:02:07;;;;;;;5.10;4.65;;;16.00;99.90;;;;;;5078048;28;20112;-61
2023/05/16 09:04:32;;;;;;;4.75;4.35;;;16.10;99.90;;;;;;5076169;28;20388;-60
2023/05/16 09:06:58;;;;;;;6.20;5.07;;;16.20;99.90;;;;;;5075955;28;20037;-60
2023/05/16 09:09:24;;;;;;;4.63;4.30;;;16.30;99.90;;;;;;5074703;28;20119;-61
2023/05/16 09:11:49;;;;;;;4.35;4.05;;;16.20;99.90;;;;;;5074436;28;20025;-60
2023/05/16 09:14:15;;;;;;;4.40;4.10;;;16.20;99.90;;;;;;5076648;28;20020;-61
2023/05/16 09:16:41;;;;;;;4.80;4.13;;;16.20;99.90;;;;;;5078716;28;20838;-60
2023/05/16 09:19:11;;;;;;;5.10;4.60;;;16.40;99.90;;;;;;5075643;28;20051;-60
2023/05/16 09:21:37;;;;;;;4.40;4.00;;;16.60;99.90;;;;;;5078141;28;20036;-60
2023/05/16 09:24:09;;;;;;;4.82;4.35;;;16.40;99.90;;;;;;5077319;28;20035;-61
2023/05/16 09:26:38;;;;;;;4.50;4.10;;;16.20;99.90;;;;;;5079055;28;20029;-60
2023/05/16 09:29:11;;;;;;;5.88;4.60;;;15.90;99.90;;;;;;5079410;28;20032;-60
2023/05/16 09:31:37;;;;;;;5.30;4.82;;;15.80;99.90;;;;;;5079123;28;20503;-60
2023/05/16 09:34:07;;;;;;;4.80;4.30;;;16.00;99.90;;;;;;5078296;28;20106;-60
2023/05/16 09:36:33;;;;;;;4.47;4.07;;;16.20;99.90;;;;;;5080632;28;20074;-60
2023/05/16 09:39:00;;;;;;;4.85;4.45;;;16.40;99.90;;;;;;5078798;28;20443;-59
2023/05/16 09:41:26;;;;;;;4.43;4.03;;;16.50;99.90;;;;;;5080709;28;20120;-60
2023/05/16 09:43:51;;;;;;;4.40;4.10;;;16.70;99.90;;;;;;5079147;28;20028;-60
2023/05/16 09:46:18;;;;;;;6.40;4.10;;;16.60;99.90;;;;;;5081907;28;20028;-60
2023/05/16 09:48:48;;;;;;;4.80;4.10;;;16.60;99.90;;;;;;5078426;28;20447;-61
2023/05/16 09:51:13;;;;;;;4.65;4.20;;;16.70;99.20;;;;;;5081405;28;20032;-61
2023/05/16 09:53:40;;;;;;;5.05;3.53;;;16.60;99.90;;;;;;5077021;28;20086;-60
2023/05/16 09:56:15;;;;;;;4.18;3.80;;;16.80;99.90;;;;;;5079699;28;20052;-61
2023/05/16 09:58:43;;;;;;;10.98;3.65;;;17.20;99.40;;;;;;5078299;28;20067;-60
2023/05/16 10:01:09;;;;;;;3.30;3.00;;;17.40;91.50;;;;;;5081865;28;20094;-61
2023/05/16 10:03:37;;;;;;;4.10;3.75;;;17.40;96.20;;;;;;5078059;28;20562;-60
2023/05/16 10:06:04;;;;;;;4.75;4.35;;;17.50;90.40;;;;;;5080481;28;20032;-60
2023/05/16 10:08:35;;;;;;;7.03;3.70;;;17.20;95.50;;;;;;5078852;28;20028;-60
2023/05/16 10:11:01;;;;;;;4.28;3.88;;;17.00;96.30;;;;;;5079125;28;20392;-60
2023/05/16 10:13:34;;;;;;;6.28;4.50;;;16.90;98.90;;;;;;5080245;28;20438;-60
2023/05/16 10:16:11;;;;;;;6.85;4.22;;;16.90;94.40;;;;;;5079307;28;20028;-60
2023/05/16 10:18:38;;;;;;;4.13;3.83;;;16.70;99.90;;;;;;5078040;28;20524;-61
2023/05/16 10:21:06;;;;;;;4.80;4.40;;;16.50;96.40;;;;;;5075433;28;20032;-60
2023/05/16 10:23:33;;;;;;;4.32;4.03;;;16.40;97.70;;;;;;5077482;28;20086;-60
2023/05/16 10:26:03;;;;;;;5.10;4.10;;;16.30;99.90;;;;;;5080181;28;20117;-59
2023/05/16 10:28:28;;;;;;;4.80;4.35;;;16.20;97.90;;;;;;5067781;28;20033;-59
2023/05/16 10:30:55;;;;;;;5.90;4.15;;;16.00;97.90;;;;;;5080776;28;20024;-60
2023/05/16 10:33:21;;;;;;;4.70;4.30;;;15.90;99.90;;;;;;5079915;28;20021;-61
2023/05/16 10:35:46;;;;;;;5.18;3.55;;;15.90;98.10;;;;;;5081695;28;20032;-61
2023/05/16 10:38:16;;;;;;;7.10;4.15;;;16.00;99.90;;;;;;5082395;28;20093;-60
2023/05/16 10:40:42;;;;;;;3.85;3.38;;;16.00;99.90;;;;;;5077548;28;20036;-61
2023/05/16 10:43:08;;;;;;;4.55;4.15;;;16.20;97.60;;;;;;5064346;28;20135;-61
2023/05/16 10:45:39;;;;;;;4.70;4.30;;;16.10;99.90;;;;;;5079099;28;20033;-60
2023/05/16 10:48:08;;;;;;;6.87;4.60;;;16.10;99.90;;;;;;5077684;28;20512;-60
2023/05/16 10:50:44;;;;;;;4.68;4.15;;;16.10;99.90;;;;;;5081001;28;20648;-60
2023/05/16 10:53:27;;;;;;;4.85;4.32;;;16.00;99.90;;;;;;5079340;28;20082;-60
2023/05/16 10:55:59;;;;;;;4.78;4.28;;;15.90;99.90;;;;;;5080697;28;20040;-60
2023/05/16 10:58:37;;;;;;;4.97;4.57;;;15.80;99.90;;;;;;5076772;28;20090;-61
2023/05/16 11:01:32;;;;;;;4.40;4.00;;;15.60;99.90;;;;;;5075567;28;20512;-61
2023/05/16 11:04:00;;;;;;;4.93;4.47;;;15.40;99.90;;;;;;5077412;28;20033;-61
2023/05/16 11:06:35;;;;;;;4.38;3.97;;;15.40;99.90;;;;;;5079630;28;20492;-61
2023/05/16 11:09:05;;;;;;;5.85;4.10;;;15.40;99.90;;;;;;5077555;28;20028;-60
2023/05/16 11:11:50;;;;;;;7.13;4.78;;;15.50;99.90;;;;;;5077006;28;20033;-60
2023/05/16 11:14:24;;;;;;;3.90;3.50;;;15.60;99.90;;;;;;5078984;28;20013;-60
2023/05/16 11:17:10;;;;;;;3.80;3.47;;;15.70;99.90;;;;;;5079585;28;20399;-60
2023/05/16 11:19:53;;;;;;;3.63;2.95;;;15.70;99.90;;;;;;5063424;28;20081;-59
2023/05/16 11:22:22;;;;;;;5.28;3.45;;;15.50;99.90;;;;;;5076582;28;20095;-61
2023/05/16 11:25:08;;;;;;;3.63;3.33;;;15.40;99.90;;;;;;5076552;28;20028;-60
2023/05/16 11:27:41;;;;;;;3.42;3.13;;;15.20;99.90;;;;;;5060798;28;20028;-59
2023/05/16 11:30:16;;;;;;;4.07;3.67;;;15.20;99.90;;;;;;5077784;28;20033;-60
2023/05/16 11:32:43;;;;;;;2.72;2.53;;;15.20;99.90;;;;;;5077508;28;20768;-60
2023/05/16 11:35:14;;;;;;;2.60;2.40;;;15.30;99.90;;;;;;5075986;28;20032;-60
2023/05/16 11:37:39;;;;;;;4.30;2.33;;;15.50;99.90;;;;;;5082281;28;20028;-61
2023/05/16 11:40:07;;;;;;;3.45;3.15;;;15.50;99.90;;;;;;5080415;28;20040;-60
2023/05/16 11:42:46;;;;;;;2.78;2.58;;;15.50;99.90;;;;;;5077364;28;20028;-60
2023/05/16 11:45:16;;;;;;;3.08;2.20;;;15.50;99.90;;;;;;5077159;28;20075;-61
2023/05/16 11:47:44;;;;;;;4.53;3.25;;;15.40;99.90;;;;;;5075310;28;20031;-61
2023/05/16 11:50:15;;;;;;;3.60;3.30;;;15.40;99.90;;;;;;5076782;28;20032;-59
2023/05/16 11:52:46;;;;;;;2.90;2.70;;;15.20;99.90;;;;;;5079433;28;20510;-60
2023/05/16 11:55:13;;;;;;;4.00;2.83;;;15.10;99.90;;;;;;5076074;28;20044;-60
2023/05/16 11:57:40;;;;;;;3.92;3.42;;;15.00;99.90;;;;;;5076972;28;20035;-61
2023/05/16 12:00:21;;;;;;;3.75;3.28;;;14.90;99.90;;;;;;5077169;28;20039;-60
2023/05/16 12:02:48;;;;;;;5.20;3.30;;;14.80;99.90;;;;;;5078465;28;20047;-61
2023/05/16 12:05:19;;;;;;;3.50;3.20;;;14.80;99.90;;;;;;5077816;28;20043;-60
2023/05/16 12:07:46;;;;;;;4.65;3.72;;;14.70;99.90;;;;;;5078126;28;20051;-61
2023/05/16 12:10:14;;;;;;;4.05;3.63;;;14.60;99.90;;;;;;5067244;28;20557;-60
2023/05/16 12:12:41;;;;;;;5.03;3.00;;;14.60;99.90;;;;;;5076698;28;20036;-60
2023/05/16 12:15:08;;;;;;;4.97;3.63;;;14.50;99.90;;;;;;5075754;28;20757;-59
2023/05/16 12:17:35;;;;;;;3.92;3.63;;;14.50;99.90;;;;;;5077709;28;20075;-61
2023/05/16 12:20:05;;;;;;;3.60;3.22;;;14.50;99.90;;;;;;5074739;28;20501;-60
2023/05/16 12:22:32;;;;;;;3.70;2.95;;;14.50;99.90;;;;;;5069640;28;20033;-60
2023/05/16 12:25:35;;;;;;;2.70;2.50;;;14.70;99.90;;;;;;5079741;28;20044;-60
2023/05/16 12:28:01;;;;;;;2.83;2.55;;;14.80;99.90;;;;;;5076995;28;20366;-61
2023/05/16 12:30:29;;;;;;;2.70;2.47;;;14.90;99.90;;;;;;5076454;28;20040;-58
2023/05/16 12:32:58;;;;;;;3.53;2.35;;;14.90;99.90;;;;;;5065489;28;20508;-59
2023/05/16 12:35:28;;;;;;;3.42;2.40;;;14.90;99.90;;;;;;5076429;28;20115;-60
2023/05/16 12:37:55;;;;;;;2.85;2.47;;;14.80;99.90;;;;;;5077538;28;20119;-60
2023/05/16 12:40:22;;;;;;;3.13;2.50;;;14.60;99.90;;;;;;5076476;28;20071;-61
2023/05/16 12:42:52;;;;;;;4.13;2.85;;;14.60;99.90;;;;;;5061716;28;20082;-61
2023/05/16 12:45:17;;;;;;;2.55;2.15;;;14.60;99.90;;;;;;5075464;28;20029;-60